createdAt,value
2018-05-31T00:01:28.806Z,73.50
2018-05-31T00:03:57.831Z,73.50
2018-05-31T00:06:26.458Z,73.50
2018-05-31T00:08:55.044Z,73.80
2018-05-31T00:11:24.354Z,73.80
2018-05-31T00:13:53.720Z,73.90
2018-05-31T00:16:22.452Z,74.40
2018-05-31T00:18:51.507Z,74.70
2018-05-31T00:21:20.175Z,74.40
2018-05-31T00:23:48.738Z,74.70
2018-05-31T00:26:17.397Z,75.10
2018-05-31T00:28:48.968Z,75.30
2018-05-31T00:31:21.325Z,76.00
2018-05-31T00:36:28.417Z,76.20
2018-05-31T00:39:11.741Z,76.60
2018-05-31T00:41:42.730Z,76.60
2018-05-31T00:44:15.632Z,76.90
2018-05-31T00:46:57.097Z,77.00
2018-05-31T00:52:13.847Z,77.30
2018-05-31T01:00:45.201Z,77.10
2018-05-31T01:24:05.709Z,78.40
2018-05-31T01:29:29.375Z,78.70
2018-05-31T01:32:04.618Z,79.00
2018-05-31T01:37:35.036Z,78.90
2018-05-31T01:43:00.534Z,80.40
2018-05-31T01:45:34.206Z,80.40
2018-05-31T01:48:18.686Z,80.40
2018-05-31T01:56:24.189Z,80.60
2018-05-31T01:59:03.020Z,80.60
2018-05-31T02:01:35.184Z,80.80
2018-05-31T02:04:12.796Z,80.90
2018-05-31T02:06:47.003Z,80.90
2018-05-31T02:09:30.023Z,81.50
2018-05-31T02:15:00.331Z,81.30
2018-05-31T02:17:49.702Z,81.20
2018-05-31T02:20:24.480Z,81.70
2018-05-31T02:22:54.978Z,81.70
2018-05-31T02:25:25.238Z,81.00
2018-05-31T02:27:53.900Z,81.30
2018-05-31T02:30:24.493Z,82.50
2018-05-31T02:32:53.958Z,82.60
2018-05-31T02:35:23.834Z,83.10
2018-05-31T02:37:54.219Z,83.20
2018-05-31T02:40:24.622Z,83.40
2018-05-31T02:42:53.265Z,83.40
2018-05-31T02:45:21.936Z,84.20
2018-05-31T02:47:57.624Z,84.60
2018-05-31T02:50:26.235Z,84.90
2018-05-31T02:52:55.628Z,85.90
2018-05-31T02:55:25.042Z,86.10
2018-05-31T02:57:58.026Z,86.00
2018-05-31T03:00:28.943Z,85.90
2018-05-31T03:02:58.509Z,85.80
2018-05-31T03:05:28.402Z,86.10
2018-05-31T03:07:57.022Z,86.30
2018-05-31T03:10:25.655Z,86.20
2018-05-31T03:12:55.440Z,86.40
2018-05-31T03:15:25.869Z,86.70
2018-05-31T03:17:58.477Z,87.10
2018-05-31T03:20:27.173Z,87.40
2018-05-31T03:22:56.581Z,87.50
2018-05-31T03:25:27.317Z,87.40
2018-05-31T03:27:57.339Z,87.40
2018-05-31T03:30:26.623Z,87.60
2018-05-31T03:32:55.232Z,87.60
2018-05-31T03:35:23.869Z,87.70
2018-05-31T03:37:52.445Z,87.90
2018-05-31T03:40:21.225Z,88.00
2018-05-31T03:42:49.976Z,87.70
2018-05-31T03:45:18.606Z,87.80
2018-05-31T03:47:48.739Z,87.60
2018-05-31T03:50:17.237Z,87.70
2018-05-31T03:52:46.246Z,87.50
2018-05-31T03:55:14.839Z,87.70
2018-05-31T03:57:44.234Z,87.60
2018-05-31T04:00:16.722Z,87.60
2018-05-31T04:02:47.023Z,87.90
2018-05-31T04:05:18.018Z,87.80
2018-05-31T04:07:49.589Z,87.80
2018-05-31T04:10:24.707Z,87.90
2018-05-31T04:12:55.047Z,87.80
2018-05-31T04:15:24.502Z,88.70
2018-05-31T04:17:55.332Z,88.60
2018-05-31T04:23:05.836Z,88.80
2018-05-31T04:25:36.203Z,88.80
2018-05-31T04:28:09.799Z,88.90
2018-05-31T04:30:53.206Z,89.10
2018-05-31T04:33:25.315Z,89.10
2018-05-31T04:35:59.005Z,89.20
2018-05-31T04:38:31.381Z,89.70
2018-05-31T04:41:09.620Z,90.00
2018-05-31T04:43:42.758Z,89.40
2018-05-31T04:46:16.415Z,89.50
2018-05-31T04:54:28.604Z,89.00
2018-05-31T05:02:44.301Z,88.20
2018-05-31T05:05:21.125Z,87.50
2018-05-31T05:13:35.246Z,85.80
2018-05-31T05:27:14.003Z,81.10
2018-05-31T05:29:49.261Z,80.20
2018-05-31T05:32:29.413Z,80.70
2018-05-31T05:35:06.116Z,80.60
2018-05-31T05:37:41.117Z,81.30
2018-05-31T05:40:11.954Z,82.90
2018-05-31T05:42:44.393Z,82.90
2018-05-31T05:45:18.771Z,82.50
2018-05-31T05:47:53.556Z,80.80
2018-05-31T06:20:10.840Z,76.80
2018-05-31T06:22:51.363Z,78.70
2018-05-31T06:25:34.297Z,77.90
2018-05-31T06:28:04.619Z,77.40
2018-05-31T06:30:38.658Z,76.40
2018-05-31T06:35:49.754Z,77.10
2018-05-31T06:38:34.325Z,75.80
2018-05-31T06:41:04.123Z,74.00
2018-05-31T06:43:46.517Z,74.80
2018-05-31T06:49:06.357Z,74.90
2018-05-31T06:59:41.873Z,72.70
2018-05-31T07:02:24.090Z,70.60
2018-05-31T07:04:54.952Z,70.40
2018-05-31T07:07:24.543Z,73.90
2018-05-31T07:09:54.047Z,72.70
2018-05-31T07:12:22.775Z,76.10
2018-05-31T07:14:52.177Z,72.30
2018-05-31T07:17:20.792Z,72.20
2018-05-31T07:19:52.231Z,69.90
2018-05-31T07:24:55.006Z,70.40
2018-05-31T07:27:23.618Z,72.30
2018-05-31T07:29:52.991Z,70.90
2018-05-31T07:32:21.535Z,74.10
2018-05-31T07:34:50.184Z,72.50
2018-05-31T07:37:18.980Z,72.40
2018-05-31T07:39:47.597Z,66.30
2018-05-31T07:42:16.941Z,69.20
2018-05-31T07:44:45.771Z,70.00
2018-05-31T07:47:16.053Z,70.90
2018-05-31T07:49:45.313Z,68.80
2018-05-31T07:52:14.453Z,68.80
2018-05-31T07:54:42.978Z,70.10
2018-05-31T07:57:11.499Z,70.20
2018-05-31T07:59:40.244Z,71.70
2018-05-31T08:02:08.745Z,65.80
2018-05-31T08:04:37.357Z,65.00
2018-05-31T08:07:06.817Z,66.50
2018-05-31T08:09:35.385Z,66.50
2018-05-31T08:12:04.090Z,67.00
2018-05-31T08:14:32.829Z,62.20
2018-05-31T08:17:03.144Z,63.80
2018-05-31T08:19:32.710Z,61.90
2018-05-31T08:22:01.277Z,66.20
2018-05-31T08:24:30.839Z,64.30
2018-05-31T08:26:59.334Z,62.20
2018-05-31T08:29:28.913Z,66.30
2018-05-31T08:31:57.360Z,60.80
2018-05-31T08:34:26.585Z,61.70
2018-05-31T08:36:55.035Z,61.20
2018-05-31T08:39:23.455Z,58.40
2018-05-31T08:41:51.887Z,58.70
2018-05-31T08:44:20.292Z,59.80
2018-05-31T08:46:48.718Z,59.10
2018-05-31T08:49:17.129Z,57.90
2018-05-31T08:51:45.564Z,57.10
2018-05-31T08:54:14.821Z,58.10
2018-05-31T08:56:43.258Z,58.30
2018-05-31T08:59:12.430Z,58.70
2018-05-31T09:01:40.871Z,58.70
2018-05-31T09:04:09.273Z,57.00
2018-05-31T09:06:38.709Z,57.80
2018-05-31T09:09:07.134Z,56.00
2018-05-31T09:11:35.573Z,57.30
2018-05-31T09:14:03.987Z,57.00
2018-05-31T09:16:33.209Z,55.50
2018-05-31T09:19:01.783Z,55.50
2018-05-31T09:21:30.346Z,61.80
2018-05-31T09:23:59.144Z,59.10
2018-05-31T09:26:28.428Z,58.40
2018-05-31T09:28:57.009Z,58.50
2018-05-31T09:31:25.559Z,60.10
2018-05-31T09:33:53.989Z,54.60
2018-05-31T09:36:22.568Z,58.40
2018-05-31T09:38:51.069Z,58.10
2018-05-31T09:41:20.363Z,58.60
2018-05-31T09:43:49.735Z,58.70
2018-05-31T09:46:18.249Z,59.70
2018-05-31T09:48:46.811Z,61.90
2018-05-31T09:51:15.325Z,61.10
2018-05-31T09:53:43.817Z,63.00
2018-05-31T09:56:12.370Z,63.90
2018-05-31T09:58:40.904Z,59.70
2018-05-31T10:01:09.407Z,62.90
2018-05-31T10:03:38.638Z,61.10
2018-05-31T10:06:07.244Z,60.90
2018-05-31T10:08:35.713Z,57.90
2018-05-31T10:11:04.163Z,58.80
2018-05-31T10:13:33.832Z,57.30
2018-05-31T10:16:02.315Z,57.40
2018-05-31T10:18:30.830Z,62.00
2018-05-31T10:20:59.364Z,59.70
2018-05-31T10:23:27.806Z,59.80
2018-05-31T10:25:56.374Z,57.60
2018-05-31T10:28:24.870Z,59.20
2018-05-31T10:30:54.321Z,59.10
2018-05-31T10:33:22.906Z,56.60
2018-05-31T10:35:51.372Z,62.00
2018-05-31T10:38:20.622Z,64.40
2018-05-31T10:40:49.158Z,64.30
2018-05-31T10:43:19.953Z,62.70
2018-05-31T10:45:48.515Z,62.60
2018-05-31T10:48:17.019Z,59.40
2018-05-31T10:50:45.544Z,57.50
2018-05-31T10:53:14.071Z,58.40
2018-05-31T10:55:42.619Z,58.00
2018-05-31T10:58:12.043Z,63.40
2018-05-31T11:00:40.566Z,63.50
2018-05-31T11:03:09.069Z,63.80
2018-05-31T11:05:37.594Z,59.70
2018-05-31T11:08:06.975Z,59.90
2018-05-31T11:10:35.453Z,59.70
2018-05-31T11:13:04.059Z,59.40
2018-05-31T11:15:32.537Z,59.80
2018-05-31T11:18:01.062Z,59.60
2018-05-31T11:20:29.601Z,60.30
2018-05-31T11:22:58.070Z,60.00
2018-05-31T11:25:26.555Z,60.90
2018-05-31T11:27:55.068Z,62.50
2018-05-31T11:30:23.560Z,62.40
2018-05-31T11:32:52.051Z,64.00
2018-05-31T11:35:20.575Z,64.30
2018-05-31T11:37:49.144Z,63.40
2018-05-31T11:40:18.596Z,64.60
2018-05-31T11:42:47.131Z,64.60
2018-05-31T11:45:16.941Z,67.20
2018-05-31T11:47:46.949Z,67.20
2018-05-31T11:50:15.456Z,67.80
2018-05-31T11:52:47.643Z,69.40
2018-05-31T11:55:16.104Z,69.30
2018-05-31T11:57:45.341Z,72.30
2018-05-31T12:00:13.859Z,72.20
2018-05-31T12:02:42.375Z,74.70
2018-05-31T12:05:10.864Z,77.60
2018-05-31T12:07:40.130Z,78.70
2018-05-31T12:10:08.584Z,78.60
2018-05-31T12:12:37.049Z,74.50
2018-05-31T12:15:06.222Z,78.80
2018-05-31T12:17:34.839Z,78.70
2018-05-31T12:20:03.243Z,84.00
2018-05-31T12:22:31.718Z,88.30
2018-05-31T12:25:00.892Z,91.10
2018-05-31T12:27:29.351Z,91.00
2018-05-31T12:29:57.760Z,93.00
2018-05-31T12:32:26.244Z,93.80
2018-05-31T12:34:54.655Z,92.90
2018-05-31T12:37:23.932Z,92.60
2018-05-31T12:39:52.334Z,92.60
2018-05-31T12:42:21.542Z,92.20
2018-05-31T12:44:50.724Z,92.50
2018-05-31T12:47:19.963Z,89.70
2018-05-31T12:49:48.354Z,89.70
2018-05-31T12:52:16.818Z,85.80
2018-05-31T12:54:45.984Z,83.80
2018-05-31T12:57:14.411Z,83.70
2018-05-31T12:59:42.824Z,84.00
2018-05-31T13:02:11.258Z,85.20
2018-05-31T13:04:40.437Z,86.70
2018-05-31T13:07:08.858Z,85.80
2018-05-31T13:09:38.061Z,87.50
2018-05-31T13:12:07.233Z,88.00
2018-05-31T13:14:35.692Z,87.80
2018-05-31T13:17:04.157Z,88.40
2018-05-31T13:19:32.609Z,88.60
2018-05-31T13:22:01.020Z,90.00
2018-05-31T13:24:29.479Z,89.60
2018-05-31T13:26:58.661Z,90.20
2018-05-31T13:29:27.986Z,90.20
2018-05-31T13:31:57.167Z,90.30
2018-05-31T13:34:28.535Z,90.30
2018-05-31T13:36:57.135Z,90.00
2018-05-31T13:39:25.648Z,90.20
2018-05-31T13:41:54.186Z,90.30
2018-05-31T13:44:23.452Z,90.20
2018-05-31T13:46:51.936Z,90.20
2018-05-31T13:49:20.455Z,90.80
2018-05-31T13:51:48.866Z,92.10
2018-05-31T13:54:17.382Z,91.00
2018-05-31T13:56:45.903Z,89.30
2018-05-31T13:59:14.376Z,90.50
2018-05-31T14:01:42.845Z,89.40
2018-05-31T14:04:11.340Z,87.20
2018-05-31T14:06:39.777Z,83.60
2018-05-31T14:09:08.312Z,85.00
2018-05-31T14:11:36.795Z,82.60
2018-05-31T14:14:05.247Z,87.80
2018-05-31T14:16:33.701Z,84.20
2018-05-31T14:19:02.918Z,82.90
2018-05-31T14:21:32.104Z,79.60
2018-05-31T14:24:01.338Z,79.60
2018-05-31T14:26:29.788Z,79.70
2018-05-31T14:28:58.266Z,80.00
2018-05-31T14:31:26.686Z,81.60
2018-05-31T14:33:55.147Z,78.00
2018-05-31T14:36:24.331Z,78.60
2018-05-31T14:38:52.778Z,78.50
2018-05-31T14:41:21.209Z,78.80
2018-05-31T14:43:49.652Z,78.30
2018-05-31T14:46:18.082Z,77.20
2018-05-31T14:48:46.545Z,77.80
2018-05-31T14:51:14.958Z,76.40
2018-05-31T14:53:44.175Z,79.50
2018-05-31T14:56:12.638Z,79.40
2018-05-31T14:58:41.862Z,80.70
2018-05-31T15:01:11.042Z,77.40
2018-05-31T15:03:39.494Z,77.50
2018-05-31T15:06:07.921Z,78.30
2018-05-31T15:08:37.131Z,78.70
2018-05-31T15:11:06.338Z,74.90
2018-05-31T15:13:34.810Z,74.80
2018-05-31T15:16:04.025Z,72.60
2018-05-31T15:18:33.309Z,73.80
2018-05-31T15:21:01.727Z,73.80
2018-05-31T15:23:30.181Z,70.40
2018-05-31T15:25:58.601Z,69.70
2018-05-31T15:28:27.076Z,71.00
2018-05-31T15:30:55.495Z,69.30
2018-05-31T15:33:23.965Z,72.10
2018-05-31T15:35:52.421Z,69.90
2018-05-31T15:38:21.613Z,71.10
2018-05-31T15:40:50.833Z,68.10
2018-05-31T15:43:19.284Z,68.00
2018-05-31T15:45:47.736Z,66.40
2018-05-31T15:48:16.161Z,63.20
2018-05-31T15:50:45.375Z,66.70
2018-05-31T15:53:14.559Z,67.10
2018-05-31T15:55:42.998Z,67.00
2018-05-31T15:58:11.443Z,65.60
2018-05-31T16:00:40.660Z,65.50
2018-05-31T16:03:09.837Z,65.40
2018-05-31T16:05:38.298Z,65.40
2018-05-31T16:08:06.730Z,66.80
2018-05-31T16:10:35.187Z,66.10
2018-05-31T16:13:03.610Z,66.60
2018-05-31T16:15:32.063Z,68.90
2018-05-31T16:18:01.371Z,65.00
2018-05-31T16:20:30.619Z,66.00
2018-05-31T16:22:59.051Z,65.90
2018-05-31T16:25:27.507Z,65.20
2018-05-31T16:27:55.926Z,65.40
2018-05-31T16:30:25.144Z,63.90
2018-05-31T16:32:54.315Z,64.30
2018-05-31T16:35:22.775Z,64.30
2018-05-31T16:37:51.227Z,64.00
2018-05-31T16:40:19.682Z,64.30
2018-05-31T16:42:48.132Z,66.80
2018-05-31T16:45:16.610Z,65.40
2018-05-31T16:47:45.074Z,64.40
2018-05-31T16:50:13.621Z,65.10
2018-05-31T16:52:42.032Z,65.50
2018-05-31T16:55:11.228Z,66.10
2018-05-31T16:57:39.660Z,66.20
2018-05-31T17:00:08.127Z,67.70
2018-05-31T17:02:36.583Z,66.50
2018-05-31T17:05:05.801Z,67.20
2018-05-31T17:07:34.265Z,67.20
2018-05-31T17:10:03.535Z,66.40
2018-05-31T17:12:31.980Z,66.40
2018-05-31T17:15:00.507Z,66.60
2018-05-31T17:17:28.888Z,65.60
2018-05-31T17:19:57.346Z,65.60
2018-05-31T17:22:25.826Z,65.60
2018-05-31T17:24:54.272Z,66.90
2018-05-31T17:27:23.616Z,65.50
2018-05-31T17:29:52.091Z,65.40
2018-05-31T17:32:20.504Z,65.40
2018-05-31T17:34:48.917Z,65.70
2018-05-31T17:37:17.415Z,66.90
2018-05-31T17:39:45.818Z,66.10
2018-05-31T17:42:14.306Z,66.10
2018-05-31T17:44:42.717Z,66.40
2018-05-31T17:47:11.145Z,66.20
2018-05-31T17:49:39.547Z,66.40
2018-05-31T17:52:09.560Z,66.00
2018-05-31T17:54:38.748Z,66.00
2018-05-31T17:57:07.202Z,66.00
2018-05-31T17:59:35.623Z,66.80
2018-05-31T18:02:04.078Z,67.40
2018-05-31T18:04:32.515Z,66.50
2018-05-31T18:07:01.712Z,67.10
2018-05-31T18:09:30.903Z,67.00
2018-05-31T18:12:00.111Z,66.60
2018-05-31T18:14:29.292Z,67.40
2018-05-31T18:16:57.752Z,67.40
2018-05-31T18:19:26.170Z,67.20
2018-05-31T18:21:54.608Z,67.50
2018-05-31T18:24:23.025Z,67.60
2018-05-31T18:26:51.469Z,68.00
2018-05-31T18:29:19.888Z,68.10
2018-05-31T18:31:48.318Z,68.40
2018-05-31T18:34:16.738Z,68.20
2018-05-31T18:36:45.228Z,68.40
2018-05-31T18:39:13.646Z,68.50
2018-05-31T18:41:42.143Z,68.40
2018-05-31T18:44:11.328Z,69.40
2018-05-31T18:46:39.775Z,69.30
2018-05-31T18:49:08.236Z,69.90
2018-05-31T18:51:36.676Z,70.40
2018-05-31T18:54:05.120Z,70.50
2018-05-31T18:56:33.584Z,71.00
2018-05-31T18:59:02.008Z,72.00
2018-05-31T19:01:30.478Z,72.10
2018-05-31T19:03:58.922Z,72.90
2018-05-31T19:06:27.362Z,75.40
2018-05-31T19:08:55.779Z,76.80
2018-05-31T19:11:24.222Z,77.70
2018-05-31T19:13:58.494Z,77.90
2018-05-31T19:16:27.706Z,80.00
2018-05-31T19:19:01.553Z,79.90
2018-05-31T19:21:30.030Z,80.40
2018-05-31T19:27:02.661Z,80.10
2018-05-31T19:29:32.102Z,81.10
2018-05-31T19:32:00.859Z,81.00
2018-05-31T19:34:31.540Z,82.10
2018-05-31T19:37:06.456Z,82.10
2018-05-31T19:39:34.916Z,81.60
2018-05-31T19:42:03.464Z,81.60
2018-05-31T19:44:37.485Z,81.70
2018-05-31T19:47:05.944Z,81.60
2018-05-31T19:49:35.125Z,80.80
2018-05-31T19:52:09.228Z,80.80
2018-05-31T19:54:38.415Z,81.20
2018-05-31T19:57:06.865Z,81.10
2018-05-31T19:59:40.596Z,80.60
2018-05-31T20:02:14.679Z,80.60
2018-05-31T20:04:43.481Z,80.60
2018-05-31T20:07:12.215Z,81.20
2018-05-31T20:09:40.883Z,81.40
2018-05-31T20:12:09.406Z,81.30
2018-05-31T20:14:38.467Z,81.70
2018-05-31T20:22:12.125Z,81.00
2018-05-31T20:24:41.505Z,80.80
2018-05-31T20:27:09.934Z,80.80
2018-05-31T20:29:38.446Z,80.80
2018-05-31T20:32:06.940Z,81.30
2018-05-31T20:34:35.948Z,81.20
2018-05-31T20:37:04.638Z,81.30
2018-05-31T20:39:33.996Z,81.60
2018-05-31T20:42:02.551Z,82.10
2018-05-31T20:44:30.991Z,82.40
2018-05-31T20:46:59.533Z,82.70
2018-05-31T20:49:27.994Z,83.30
2018-05-31T20:51:56.437Z,83.80
2018-05-31T20:54:24.883Z,84.00
2018-05-31T20:56:53.294Z,84.20
2018-05-31T20:59:22.491Z,84.20
2018-05-31T21:01:51.666Z,84.00
2018-05-31T21:04:20.090Z,84.00
2018-05-31T21:06:48.510Z,84.00
2018-05-31T21:09:16.935Z,83.60
2018-05-31T21:11:46.211Z,83.70
2018-05-31T21:14:14.662Z,83.70
2018-05-31T21:16:43.079Z,83.60
2018-05-31T21:19:11.531Z,83.20
2018-05-31T21:21:39.949Z,83.30
2018-05-31T21:24:08.383Z,83.20
2018-05-31T21:26:36.970Z,83.50
2018-05-31T21:29:05.444Z,83.50
2018-05-31T21:31:34.635Z,83.40
2018-05-31T21:34:03.932Z,83.50
2018-05-31T21:36:33.135Z,84.20
2018-05-31T21:39:01.584Z,84.30
2018-05-31T21:41:30.001Z,84.60
2018-05-31T21:43:58.551Z,84.40
2018-05-31T21:46:28.910Z,85.20
2018-05-31T21:48:57.652Z,85.90
2018-05-31T21:51:26.267Z,85.40
2018-05-31T21:53:58.414Z,76.50
2018-05-31T21:56:29.044Z,75.40
2018-05-31T21:58:58.524Z,77.00
2018-05-31T22:01:27.715Z,78.50
2018-05-31T22:03:57.766Z,82.30
